Time;durP1;ratioP1;P1;durP2;ratioP2;P2;SDS_P1;SDS_P2;PMS_P1;PMS_P2;Temp;Humidity;BMP_temperature;BMP_pressure;BME280_temperature;BME280_humidity;BME280_pressure;Samples;Min_cycle;Max_cycle;Signal;HPM_P1;HPM_P2
2021/04/18 00:03:57;;;;;;;56.10;32.38;;;;;;;7.10;83.06;100149.47;232683;1174;117098;-68
2021/04/18 00:09:01;;;;;;;51.63;29.93;;;;;;;7.13;82.40;100148.25;232338;1176;116774;-65
2021/04/18 00:14:07;;;;;;;61.60;31.65;;;;;;;7.17;82.59;100141.53;232534;1175;116391;-64
2021/04/18 00:19:12;;;;;;;58.53;33.80;;;;;;;7.22;82.60;100155.00;233564;1176;117069;-65
2021/04/18 00:24:16;;;;;;;57.83;31.90;;;;;;;7.04;82.26;100159.04;233007;1176;117935;-64
2021/04/18 00:29:20;;;;;;;57.33;29.55;;;;;;;6.91;82.79;100164.33;232440;1171;116680;-65
2021/04/18 00:34:24;;;;;;;48.75;27.75;;;;;;;6.90;82.84;100152.09;233350;1174;115982;-66
2021/04/18 00:39:28;;;;;;;52.90;29.55;;;;;;;6.98;83.25;100149.27;232920;1174;116320;-67
2021/04/18 00:44:31;;;;;;;60.30;33.00;;;;;;;7.08;82.86;100147.02;234116;1174;116471;-67
2021/04/18 00:49:35;;;;;;;54.08;31.05;;;;;;;7.21;83.28;100140.11;234952;1174;116146;-67
2021/04/18 00:54:39;;;;;;;55.73;29.47;;;;;;;7.25;82.18;100136.04;234439;1174;116269;-68
2021/04/18 00:59:42;;;;;;;51.50;28.88;;;;;;;7.28;82.14;100139.11;234721;1172;116154;-68
2021/04/18 01:04:48;;;;;;;53.53;31.18;;;;;;;7.33;82.44;100138.50;234946;1174;115413;-67
2021/04/18 01:09:51;;;;;;;57.20;32.40;;;;;;;7.34;82.97;100132.14;234288;1176;117118;-68
2021/04/18 01:14:53;;;;;;;60.33;29.03;;;;;;;7.40;82.01;100131.34;233790;1174;115110;-67
2021/04/18 01:19:57;;;;;;;53.07;30.33;;;;;;;7.36;82.25;100141.53;232526;1174;115715;-67
2021/04/18 01:25:04;;;;;;;46.47;24.63;;;;;;;7.22;81.65;100139.09;232626;1174;118330;-67
2021/04/18 01:30:29;;;;;;;54.10;29.05;;;;;;;7.06;82.33;100135.80;234092;1174;119124;-67
2021/04/18 01:35:37;;;;;;;46.10;27.83;;;;;;;7.10;82.63;100138.88;233265;1170;115552;-68
2021/04/18 01:40:42;;;;;;;58.88;30.28;;;;;;;7.16;82.35;100124.81;232432;1174;116289;-68
2021/04/18 01:45:49;;;;;;;51.23;28.55;;;;;;;7.17;82.78;100120.33;233018;1176;115506;-67
2021/04/18 01:50:52;;;;;;;56.05;31.60;;;;;;;7.13;81.60;100132.34;233275;1175;115313;-67
2021/04/18 01:55:55;;;;;;;54.27;28.97;;;;;;;7.03;82.13;100136.20;233485;1174;115702;-65
2021/04/18 02:00:59;;;;;;;57.93;31.17;;;;;;;7.07;82.59;100132.13;232675;1174;116616;-67
2021/04/18 02:06:03;;;;;;;58.30;31.17;;;;;;;7.13;82.50;100127.86;232604;1175;116798;-66
2021/04/18 02:11:07;;;;;;;64.20;34.20;;;;;;;7.04;82.15;100129.06;232633;1174;115092;-66
2021/04/18 02:16:11;;;;;;;65.65;33.10;;;;;;;6.91;82.24;100137.83;233653;1175;116001;-66
2021/04/18 02:21:16;;;;;;;71.50;41.10;;;;;;;6.93;82.28;100119.90;233150;1174;115400;-68
2021/04/18 02:26:19;;;;;;;67.75;37.38;;;;;;;6.89;82.80;100113.36;232632;1175;115700;-67
2021/04/18 02:31:22;;;;;;;74.45;40.20;;;;;;;6.92;82.47;100102.36;232988;1176;117145;-67
2021/04/18 02:36:26;;;;;;;72.00;37.45;;;;;;;6.98;82.30;100103.39;232844;1175;116304;-66
2021/04/18 02:41:30;;;;;;;73.28;41.30;;;;;;;6.96;82.50;100103.59;234183;1175;117563;-67
2021/04/18 02:46:34;;;;;;;71.43;37.10;;;;;;;7.00;83.53;100104.83;234180;1175;116624;-68
2021/04/18 02:51:38;;;;;;;61.73;32.85;;;;;;;7.04;82.60;100105.21;233916;1176;117422;-67
2021/04/18 02:56:41;;;;;;;66.27;33.77;;;;;;;6.94;82.53;100105.63;234028;1175;116357;-67
2021/04/18 03:01:45;;;;;;;69.63;36.25;;;;;;;6.92;83.02;100099.71;233592;1176;116070;-67
2021/04/18 03:06:48;;;;;;;75.63;38.40;;;;;;;6.92;82.75;100096.25;234690;1174;115932;-69
2021/04/18 03:11:52;;;;;;;75.83;37.60;;;;;;;6.87;82.13;100101.33;234367;1176;117343;-69
2021/04/18 03:16:56;;;;;;;68.30;36.90;;;;;;;6.77;82.20;100104.36;234736;1170;116037;-68
2021/04/18 03:22:00;;;;;;;67.67;34.50;;;;;;;6.76;82.44;100102.73;234514;1175;117035;-65
2021/04/18 03:27:04;;;;;;;62.83;34.90;;;;;;;6.77;82.38;100109.66;233612;1176;116036;-65
2021/04/18 03:32:08;;;;;;;73.10;36.70;;;;;;;6.73;82.29;100109.24;234006;1176;117107;-64
2021/04/18 03:37:13;;;;;;;68.13;37.48;;;;;;;6.75;82.34;100122.29;232740;1175;117328;-64
2021/04/18 03:42:16;;;;;;;76.10;36.57;;;;;;;6.82;82.65;100123.13;233212;1176;116382;-65
2021/04/18 03:47:19;;;;;;;76.70;41.63;;;;;;;6.85;83.37;100120.08;232646;1174;115815;-66
2021/04/18 03:52:24;;;;;;;70.23;33.87;;;;;;;6.85;83.21;100125.38;232468;1175;116208;-66
2021/04/18 03:57:28;;;;;;;85.98;39.60;;;;;;;6.82;83.09;100119.66;232636;1174;115839;-66
2021/04/18 04:02:34;;;;;;;76.43;35.93;;;;;;;6.81;82.90;100128.63;232651;1176;116651;-65
2021/04/18 04:07:39;;;;;;;80.35;39.35;;;;;;;6.75;82.87;100135.53;232672;1176;116705;-65
2021/04/18 04:12:43;;;;;;;87.30;41.08;;;;;;;6.70;82.77;100140.64;232737;1176;116664;-65
2021/04/18 04:17:47;;;;;;;80.08;38.80;;;;;;;6.62;82.96;100151.41;232728;1175;117195;-64
2021/04/18 04:22:51;;;;;;;89.07;42.13;;;;;;;6.62;83.23;100154.88;232508;1175;116193;-65
2021/04/18 04:27:56;;;;;;;84.37;38.47;;;;;;;6.62;83.15;100154.88;232600;1176;116120;-64
2021/04/18 04:33:00;;;;;;;89.00;42.50;;;;;;;6.58;83.63;100155.47;233349;1175;117201;-65
2021/04/18 04:38:04;;;;;;;91.10;42.87;;;;;;;6.61;83.45;100149.77;232413;1174;115497;-65
2021/04/18 04:43:07;;;;;;;89.50;45.30;;;;;;;6.70;83.69;100151.23;232597;1174;116605;-65
2021/04/18 04:48:11;;;;;;;92.17;42.30;;;;;;;6.76;83.21;100156.53;233462;1170;115537;-65
2021/04/18 04:53:15;;;;;;;95.20;41.47;;;;;;;6.82;83.20;100148.81;233414;1175;115778;-64
2021/04/18 04:58:18;;;;;;;101.08;48.03;;;;;;;7.00;83.79;100147.23;234178;1174;115837;-64
2021/04/18 05:03:26;;;;;;;102.05;45.75;;;;;;;7.08;83.00;100143.55;235035;1175;115354;-64
2021/04/18 05:08:30;;;;;;;105.37;47.33;;;;;;;7.22;83.51;100147.87;235115;1174;117702;-64
2021/04/18 05:13:34;;;;;;;89.07;43.33;;;;;;;7.35;83.19;100155.00;233605;1174;117488;-65
2021/04/18 05:18:39;;;;;;;97.58;46.88;;;;;;;7.47;83.35;100156.03;235062;1176;117376;-66
2021/04/18 05:23:45;;;;;;;90.30;40.53;;;;;;;7.65;83.13;100155.40;234175;1176;116981;-67
2021/04/18 05:28:49;;;;;;;93.60;42.77;;;;;;;7.78;82.53;100145.60;232512;1175;117220;-69
2021/04/18 05:33:53;;;;;;;86.93;40.48;;;;;;;7.94;82.95;100140.89;232234;1176;117406;-70
2021/04/18 05:38:57;;;;;;;82.93;38.90;;;;;;;8.00;82.86;100153.31;232469;1175;116499;-69
2021/04/18 05:44:01;;;;;;;86.33;38.60;;;;;;;8.02;81.76;100154.73;232817;1174;116869;-70
2021/04/18 05:49:04;;;;;;;75.40;34.03;;;;;;;8.03;82.01;100150.25;232534;1176;116450;-67
2021/04/18 05:54:09;;;;;;;77.53;36.55;;;;;;;8.02;82.06;100159.23;232673;1176;118219;-67
2021/04/18 05:59:13;;;;;;;74.00;37.40;;;;;;;8.18;82.06;100166.77;232598;1176;116076;-68
2021/04/18 06:04:17;;;;;;;69.58;35.40;;;;;;;8.33;81.16;100159.38;232608;1175;116725;-67
2021/04/18 06:09:21;;;;;;;64.03;34.27;;;;;;;8.47;81.67;100159.34;232453;1174;116683;-68
2021/04/18 06:14:24;;;;;;;64.60;34.13;;;;;;;8.40;82.14;100170.81;232597;1176;117174;-67
2021/04/18 06:19:27;;;;;;;83.10;35.93;;;;;;;8.44;82.06;100166.70;232334;1176;116793;-67
2021/04/18 06:24:31;;;;;;;70.83;32.10;;;;;;;8.43;81.57;100181.02;232404;1176;116931;-67
2021/04/18 06:29:40;;;;;;;67.83;31.95;;;;;;;8.42;81.79;100175.91;232606;1176;116682;-68
2021/04/18 06:34:44;;;;;;;65.48;35.73;;;;;;;8.44;82.27;100164.05;233387;1175;116994;-65
2021/04/18 06:39:47;;;;;;;74.87;35.03;;;;;;;8.62;82.17;100173.17;233781;1176;117899;-64
2021/04/18 06:44:52;;;;;;;56.48;28.65;;;;;;;8.68;81.74;100178.45;233456;1175;117191;-64
2021/04/18 06:49:55;;;;;;;32.23;18.80;;;;;;;8.68;81.38;100174.98;233043;1175;116015;-66
2021/04/18 06:54:59;;;;;;;41.57;20.73;;;;;;;8.76;81.89;100175.56;232602;1176;117204;-65
2021/04/18 07:00:05;;;;;;;44.43;22.88;;;;;;;9.03;80.95;100181.55;233909;1176;118308;-66
2021/04/18 07:05:15;;;;;;;32.15;16.55;;;;;;;9.27;80.49;100179.14;234056;1174;116019;-67
2021/04/18 07:10:30;;;;;;;34.75;22.23;;;;;;;9.54;80.75;100183.23;234418;1174;116968;-66
2021/04/18 07:15:39;;;;;;;40.40;19.98;;;;;;;9.91;80.40;100188.66;233178;1176;117610;-66
2021/04/18 07:20:55;;;;;;;35.40;17.53;;;;;;;10.36;79.55;100187.42;234404;1175;117112;-66
2021/04/18 07:26:24;;;;;;;28.90;15.10;;;;;;;10.34;79.03;100192.16;234410;1174;115880;-65
2021/04/18 07:31:32;;;;;;;31.25;14.48;;;;;;;10.25;79.45;100201.47;232472;1175;115766;-64
2021/04/18 07:36:38;;;;;;;33.38;19.48;;;;;;;10.12;79.03;100206.89;233681;1174;115487;-65
2021/04/18 07:41:46;;;;;;;25.80;13.95;;;;;;;9.90;79.44;100205.67;233118;1175;117245;-65
2021/04/18 07:46:52;;;;;;;29.88;16.80;;;;;;;9.88;78.84;100205.89;233360;1176;116143;-64
2021/04/18 07:51:57;;;;;;;25.80;14.00;;;;;;;9.94;79.44;100207.68;232676;1175;116414;-67
2021/04/18 07:57:01;;;;;;;22.38;12.75;;;;;;;10.06;78.90;100215.78;232782;1174;116408;-65
2021/04/18 08:02:05;;;;;;;22.20;13.80;;;;;;;10.27;79.02;100218.05;232783;1174;115869;-66
2021/04/18 08:07:09;;;;;;;19.07;13.70;;;;;;;10.37;79.00;100210.37;232707;1174;115926;-65
2021/04/18 08:12:14;;;;;;;19.70;13.80;;;;;;;10.51;78.11;100220.86;232712;1174;115408;-65
2021/04/18 08:17:18;;;;;;;23.77;15.47;;;;;;;10.73;78.33;100217.52;232457;1175;115593;-65
2021/04/18 08:22:25;;;;;;;19.15;11.80;;;;;;;10.99;78.36;100215.58;232301;1174;115857;-66
2021/04/18 08:27:28;;;;;;;21.33;14.20;;;;;;;10.96;77.41;100216.84;232618;1175;115763;-65
2021/04/18 08:32:48;;;;;;;18.73;12.37;;;;;;;10.80;77.63;100215.59;232774;1175;116354;-65
2021/04/18 08:38:20;;;;;;;20.20;12.15;;;;;;;10.73;78.03;100214.84;232962;1175;116822;-64
2021/04/18 08:43:24;;;;;;;18.23;12.93;;;;;;;11.05;77.10;100218.13;234589;1174;115764;-65
2021/04/18 08:48:28;;;;;;;16.03;11.00;;;;;;;11.24;76.82;100210.09;232788;1174;116655;-65
2021/04/18 08:54:05;;;;;;;13.65;9.80;;;;;;;11.18;75.66;100211.81;233719;1174;116058;-68
2021/04/18 08:59:13;;;;;;;18.33;10.78;;;;;;;11.21;75.97;100222.03;233113;1175;116016;-64
2021/04/18 09:04:20;;;;;;;18.25;12.65;;;;;;;11.38;75.89;100217.66;235130;1175;116211;-65
2021/04/18 09:09:24;;;;;;;17.25;10.33;;;;;;;12.16;75.67;100219.31;234961;1176;117998;-65
2021/04/18 09:14:32;;;;;;;13.23;10.43;;;;;;;12.70;74.25;100204.68;234876;1174;117859;-66
2021/04/18 09:19:37;;;;;;;16.00;10.03;;;;;;;13.40;74.66;100203.61;234074;1176;115861;-68
2021/04/18 09:24:54;;;;;;;11.57;9.47;;;;;;;13.93;74.11;100199.63;234008;1174;116262;-69
2021/04/18 09:30:05;;;;;;;14.90;10.80;;;;;;;14.69;74.00;100206.85;232470;1174;117367;-67
2021/04/18 09:35:10;;;;;;;14.95;10.93;;;;;;;15.17;72.75;100205.25;232333;1174;116304;-66
2021/04/18 09:40:16;;;;;;;13.08;10.05;;;;;;;15.20;70.98;100203.93;232631;1176;116296;-65
2021/04/18 09:45:24;;;;;;;13.07;8.20;;;;;;;15.37;70.43;100212.68;233214;1174;115827;-65
2021/04/18 09:50:34;;;;;;;11.70;8.55;;;;;;;14.85;69.11;100209.73;233616;1174;115675;-67
2021/04/18 09:56:00;;;;;;;12.37;8.83;;;;;;;14.52;68.29;100205.30;232653;1174;116197;-68
2021/04/18 10:01:05;;;;;;;12.03;10.50;;;;;;;14.22;68.26;100209.17;232993;1176;116403;-67
2021/04/18 10:06:09;;;;;;;12.58;8.70;;;;;;;14.09;68.46;100210.31;232498;1175;116323;-65
2021/04/18 10:11:12;;;;;;;13.70;9.50;;;;;;;13.94;67.71;100215.47;232388;1176;115476;-67
2021/04/18 10:16:17;;;;;;;15.05;11.30;;;;;;;13.65;67.02;100220.09;232462;1174;116359;-67
2021/04/18 10:21:22;;;;;;;9.75;8.15;;;;;;;13.54;67.80;100215.62;233542;1177;115488;-68
2021/04/18 10:26:26;;;;;;;11.98;8.65;;;;;;;13.34;68.19;100217.95;232315;1175;115218;-67
2021/04/18 10:31:34;;;;;;;18.05;11.55;;;;;;;13.10;67.83;100209.20;232174;1175;116466;-67
2021/04/18 10:36:38;;;;;;;10.08;8.30;;;;;;;12.98;67.61;100216.45;233089;1175;117267;-64
2021/04/18 10:41:44;;;;;;;8.67;7.57;;;;;;;12.97;67.89;100212.96;232888;1174;139024;-68
2021/04/18 10:47:17;;;;;;;10.80;7.90;;;;;;;12.87;67.70;100215.43;232469;1174;116492;-65
2021/04/18 10:52:21;;;;;;;13.55;10.88;;;;;;;12.67;67.12;100215.04;233037;1175;115547;-66
2021/04/18 10:57:25;;;;;;;10.15;7.88;;;;;;;12.54;67.38;100217.96;232929;1176;116141;-66
2021/04/18 11:02:29;;;;;;;13.03;7.93;;;;;;;12.41;67.57;100222.53;232396;1175;117434;-66
2021/04/18 11:07:33;;;;;;;8.25;6.65;;;;;;;12.26;67.50;100221.38;233733;1176;115678;-65
2021/04/18 11:12:41;;;;;;;11.30;6.70;;;;;;;12.24;67.29;100221.61;233173;1176;114996;-64
2021/04/18 11:17:45;;;;;;;8.25;6.50;;;;;;;12.24;66.98;100218.94;233052;1176;116230;-68
2021/04/18 11:22:47;;;;;;;12.55;9.50;;;;;;;12.25;67.36;100223.23;233762;1176;117455;-68
2021/04/18 11:27:51;;;;;;;15.03;8.07;;;;;;;12.26;67.20;100221.38;234279;1176;116841;-65
2021/04/18 11:32:55;;;;;;;12.10;8.50;;;;;;;12.27;67.37;100213.12;233975;1176;116554;-65
2021/04/18 11:38:00;;;;;;;12.10;6.77;;;;;;;12.16;67.32;100223.84;232900;1174;115488;-66
2021/04/18 11:43:04;;;;;;;16.50;9.58;;;;;;;12.12;67.16;100221.63;233859;1174;115324;-65
2021/04/18 11:48:08;;;;;;;11.43;9.20;;;;;;;12.20;67.41;100217.80;232669;1168;115932;-67
2021/04/18 11:53:11;;;;;;;13.68;8.23;;;;;;;12.25;67.16;100217.88;233055;1170;115852;-66
2021/04/18 11:58:17;;;;;;;11.63;7.50;;;;;;;12.29;67.74;100208.36;232308;1175;116342;-65
2021/04/18 12:03:20;;;;;;;13.80;9.45;;;;;;;12.32;66.54;100215.91;232683;1176;115442;-69
2021/04/18 12:08:25;;;;;;;15.05;9.73;;;;;;;12.34;66.26;100205.80;232866;1175;115116;-68
2021/04/18 12:13:29;;;;;;;12.08;8.53;;;;;;;12.51;66.27;100215.78;232377;1175;115535;-64
2021/04/18 12:18:32;;;;;;;16.98;11.00;;;;;;;12.64;66.66;100210.16;232712;1174;116055;-66
2021/04/18 12:23:37;;;;;;;13.28;10.40;;;;;;;12.91;65.78;100205.88;233045;1174;117491;-67
2021/04/18 12:28:41;;;;;;;13.97;10.47;;;;;;;13.07;65.91;100198.97;232940;1176;115612;-65
2021/04/18 12:33:44;;;;;;;15.10;10.43;;;;;;;13.32;65.72;100203.99;233070;1176;115256;-66
2021/04/18 12:38:47;;;;;;;12.80;10.03;;;;;;;13.52;64.98;100204.33;232373;1174;116750;-64
2021/04/18 12:43:50;;;;;;;14.30;9.23;;;;;;;13.59;63.98;100201.50;232517;1174;116514;-66
2021/04/18 12:48:55;;;;;;;14.23;10.38;;;;;;;13.35;63.38;100200.84;233195;1176;115054;-67
2021/04/18 12:54:01;;;;;;;16.30;10.25;;;;;;;13.17;64.50;100193.00;232919;1170;116229;-66
2021/04/18 12:59:04;;;;;;;;;;;;;;;12.99;64.49;100196.67;234670;1176;116210;-64
2021/04/18 13:04:08;;;;;;;16.80;9.45;;;;;;;13.00;64.75;100201.78;233451;1175;107329;-67
2021/04/18 13:09:11;;;;;;;10.78;8.88;;;;;;;13.09;64.36;100196.87;233209;1175;117642;-65
2021/04/18 13:14:14;;;;;;;12.18;9.03;;;;;;;13.22;64.84;100201.94;232412;1174;117467;-67
2021/04/18 13:19:18;;;;;;;15.20;10.50;;;;;;;13.41;64.40;100198.02;235018;1176;115765;-66
2021/04/18 13:24:23;;;;;;;18.15;12.88;;;;;;;13.47;63.71;100196.20;234489;1174;116747;-66
2021/04/18 13:29:26;;;;;;;14.20;9.20;;;;;;;13.28;63.42;100194.81;234891;1175;117759;-68
2021/04/18 13:34:30;;;;;;;9.30;7.98;;;;;;;13.09;63.75;100186.97;234374;1171;115936;-66
2021/04/18 13:39:33;;;;;;;17.60;10.13;;;;;;;13.19;63.69;100185.55;234028;1171;116714;-68
2021/04/18 13:44:36;;;;;;;15.20;10.68;;;;;;;13.13;64.31;100188.13;232501;1176;117839;-68
2021/04/18 13:49:40;;;;;;;14.33;9.17;;;;;;;13.04;64.37;100194.91;232338;1174;116224;-68
2021/04/18 13:54:44;;;;;;;19.58;11.95;;;;;;;13.11;63.96;100184.06;233570;1174;116165;-65
2021/04/18 13:59:47;;;;;;;17.28;12.00;;;;;;;13.08;63.62;100190.70;232508;1174;117090;-68
2021/04/18 14:04:50;;;;;;;13.85;9.90;;;;;;;13.11;64.07;100182.20;232396;1174;117315;-65
2021/04/18 14:09:55;;;;;;;13.65;10.25;;;;;;;13.04;63.99;100186.88;232439;1176;117603;-67
2021/04/18 14:14:59;;;;;;;11.10;10.00;;;;;;;13.00;63.78;100184.91;232601;1174;116415;-67
2021/04/18 14:20:05;;;;;;;10.70;8.53;;;;;;;12.91;63.30;100184.48;232534;1175;116926;-64
2021/04/18 14:25:10;;;;;;;17.00;9.77;;;;;;;12.84;63.28;100174.98;232479;1177;117027;-67
2021/04/18 14:30:14;;;;;;;13.80;9.47;;;;;;;12.85;63.65;100169.38;232401;1174;116639;-68
2021/04/18 14:35:17;;;;;;;12.00;8.15;;;;;;;12.81;63.85;100176.28;232342;1176;117450;-68
2021/04/18 14:40:20;;;;;;;14.00;10.63;;;;;;;12.70;63.53;100180.61;232258;1176;117231;-68
2021/04/18 14:45:24;;;;;;;14.50;10.50;;;;;;;12.51;64.12;100178.34;232531;1175;116556;-68
2021/04/18 14:50:29;;;;;;;16.90;12.40;;;;;;;12.40;63.49;100178.13;232430;1177;116588;-67
2021/04/18 14:55:32;;;;;;;19.60;13.10;;;;;;;12.42;64.10;100186.73;232346;1176;117475;-67
2021/04/18 15:00:34;;;;;;;14.43;10.10;;;;;;;12.42;63.68;100177.89;232505;1176;117261;-65
2021/04/18 15:05:38;;;;;;;13.58;9.98;;;;;;;12.44;64.03;100179.28;233180;1175;116378;-66
2021/04/18 15:10:40;;;;;;;15.13;9.43;;;;;;;12.44;63.99;100189.17;233396;1175;118363;-67
2021/04/18 15:15:43;;;;;;;19.30;10.28;;;;;;;12.33;63.90;100188.13;232355;1174;117690;-67
2021/04/18 15:20:47;;;;;;;16.20;10.40;;;;;;;12.28;63.89;100181.86;233637;1174;116981;-68
2021/04/18 15:25:52;;;;;;;16.20;12.05;;;;;;;12.21;63.71;100184.68;232576;1176;117668;-65
2021/04/18 15:30:56;;;;;;;18.18;12.70;;;;;;;12.14;63.86;100181.31;234161;1176;116546;-67
2021/04/18 15:36:05;;;;;;;17.45;12.23;;;;;;;12.12;64.10;100181.55;234391;1174;117178;-64
2021/04/18 15:41:12;;;;;;;16.48;10.15;;;;;;;12.17;64.12;100188.86;234026;1174;118231;-64
2021/04/18 15:46:15;;;;;;;18.90;13.05;;;;;;;12.22;64.04;100175.62;233297;1176;117271;-68
2021/04/18 15:51:18;;;;;;;16.48;12.08;;;;;;;12.20;64.18;100184.91;232389;1174;116822;-66
2021/04/18 15:56:23;;;;;;;17.50;13.53;;;;;;;12.23;64.35;100176.43;233866;1175;116090;-67
2021/04/18 16:01:28;;;;;;;18.83;12.67;;;;;;;12.26;63.81;100181.28;232367;1175;117844;-65
2021/04/18 16:06:33;;;;;;;18.93;12.20;;;;;;;12.28;63.79;100177.33;232442;1175;116291;-66
2021/04/18 16:11:37;;;;;;;16.30;11.10;;;;;;;12.21;64.25;100173.98;232541;1175;116757;-66
2021/04/18 16:16:41;;;;;;;15.88;10.50;;;;;;;12.09;64.47;100187.35;232146;1175;117675;-68
2021/04/18 16:21:44;;;;;;;13.35;9.05;;;;;;;11.99;64.69;100183.63;232472;1176;116704;-68
2021/04/18 16:26:47;;;;;;;24.20;13.65;;;;;;;11.91;64.70;100179.47;232259;1175;116244;-66
2021/04/18 16:31:51;;;;;;;20.13;13.35;;;;;;;11.83;65.26;100182.48;232466;1174;209557;-66
2021/04/18 16:36:55;;;;;;;18.58;13.35;;;;;;;11.75;65.10;100188.94;232607;1174;116942;-66
2021/04/18 16:41:59;;;;;;;16.60;11.70;;;;;;;11.64;65.11;100186.25;232362;1176;119340;-67
2021/04/18 16:47:06;;;;;;;22.10;13.87;;;;;;;11.47;65.07;100194.95;232484;1174;116763;-66
2021/04/18 16:52:10;;;;;;;16.90;11.25;;;;;;;11.32;65.66;100188.39;232227;1174;116413;-66
2021/04/18 16:57:14;;;;;;;18.35;11.90;;;;;;;11.22;66.01;100193.49;232346;1174;117251;-70
2021/04/18 17:02:19;;;;;;;21.18;15.00;;;;;;;11.16;66.66;100199.73;233114;1174;117358;-68
2021/04/18 17:07:47;;;;;;;28.05;15.90;;;;;;;11.12;66.80;100208.19;232449;1174;116672;-64
2021/04/18 17:12:52;;;;;;;23.40;16.35;;;;;;;11.09;67.48;100211.30;232199;1174;116530;-67
2021/04/18 17:17:59;;;;;;;24.08;16.23;;;;;;;11.02;67.41;100217.76;234848;1171;117517;-64
2021/04/18 17:23:03;;;;;;;26.55;16.35;;;;;;;10.89;67.32;100216.09;234903;1175;115588;-64
2021/04/18 17:28:06;;;;;;;22.93;15.18;;;;;;;10.75;67.73;100218.11;234917;1172;116145;-67
2021/04/18 17:33:11;;;;;;;22.83;14.23;;;;;;;10.63;67.74;100224.42;235025;1174;116617;-68
2021/04/18 17:38:14;;;;;;;30.13;18.03;;;;;;;10.53;68.34;100234.78;234997;1174;116785;-67
2021/04/18 17:43:18;;;;;;;29.78;17.33;;;;;;;10.43;68.33;100238.77;233647;1175;115575;-67
2021/04/18 17:48:22;;;;;;;23.30;16.93;;;;;;;10.36;68.78;100250.56;234695;1174;117270;-67
2021/04/18 17:53:25;;;;;;;21.60;15.33;;;;;;;10.20;68.89;100251.93;234276;1174;116106;-67
2021/04/18 17:58:28;;;;;;;24.80;15.40;;;;;;;10.03;68.75;100248.99;233964;1174;115721;-67
2021/04/18 18:03:30;;;;;;;23.23;14.50;;;;;;;9.93;69.26;100253.17;233203;1174;115717;-68
2021/04/18 18:08:34;;;;;;;22.23;15.93;;;;;;;9.82;69.52;100248.54;233962;1176;116171;-68
2021/04/18 18:13:40;;;;;;;21.60;15.10;;;;;;;9.69;69.39;100255.62;233972;1174;115061;-68
2021/04/18 18:18:43;;;;;;;25.00;14.80;;;;;;;9.50;70.03;100261.88;233176;1174;115502;-66
2021/04/18 18:23:46;;;;;;;22.10;12.85;;;;;;;9.33;69.66;100255.44;232466;1171;116194;-66
2021/04/18 18:28:49;;;;;;;25.63;14.38;;;;;;;9.10;70.55;100251.48;232421;1174;117769;-65
2021/04/18 18:33:53;;;;;;;20.60;14.05;;;;;;;8.82;70.49;100248.34;232175;1174;115512;-66
2021/04/18 18:38:59;;;;;;;24.87;15.87;;;;;;;8.56;70.34;100261.72;233459;1174;115865;-68
2021/04/18 18:44:04;;;;;;;28.05;15.95;;;;;;;8.48;70.70;100267.25;232674;1174;116204;-67
2021/04/18 18:49:09;;;;;;;26.20;15.53;;;;;;;8.41;71.42;100269.91;233461;1176;115680;-63
2021/04/18 18:54:11;;;;;;;25.65;16.35;;;;;;;8.35;71.73;100274.22;232563;1176;116090;-65
2021/04/18 18:59:15;;;;;;;22.43;13.90;;;;;;;8.23;72.14;100267.06;232238;1176;115875;-69
2021/04/18 19:04:19;;;;;;;24.75;14.23;;;;;;;8.16;72.13;100283.00;232615;1175;116127;-68
2021/04/18 19:09:25;;;;;;;24.08;14.53;;;;;;;8.10;72.60;100276.66;232748;1174;116896;-67
2021/04/18 19:14:29;;;;;;;22.13;14.47;;;;;;;8.09;72.62;100271.56;232441;1174;116546;-65
2021/04/18 19:19:34;;;;;;;27.03;16.15;;;;;;;7.97;73.16;100265.22;233542;1174;116303;-66
2021/04/18 19:24:38;;;;;;;27.35;18.20;;;;;;;7.94;73.25;100261.17;234773;1174;116359;-67
2021/04/18 19:29:42;;;;;;;25.25;18.20;;;;;;;7.96;73.61;100263.59;234800;1175;115865;-67
2021/04/18 19:34:45;;;;;;;37.30;19.93;;;;;;;7.95;73.84;100268.08;234800;1176;115248;-67
2021/04/18 19:39:49;;;;;;;24.00;16.10;;;;;;;7.93;73.76;100266.68;233289;1176;115713;-69
2021/04/18 19:44:52;;;;;;;28.73;17.43;;;;;;;7.76;73.42;100259.10;235018;1176;116218;-67
2021/04/18 19:49:55;;;;;;;27.45;17.68;;;;;;;7.64;73.94;100259.93;234944;1174;116281;-66
2021/04/18 19:55:00;;;;;;;25.10;17.13;;;;;;;7.66;73.69;100263.98;233746;1174;118283;-67
2021/04/18 20:00:07;;;;;;;56.85;20.80;;;;;;;7.67;74.16;100254.19;232455;1176;116497;-66
2021/04/18 20:05:12;;;;;;;31.55;19.18;;;;;;;7.64;75.05;100259.93;233277;1174;115705;-67
2021/04/18 20:10:18;;;;;;;27.80;18.55;;;;;;;7.66;75.21;100256.03;232952;1174;116012;-66
2021/04/18 20:15:21;;;;;;;40.73;25.58;;;;;;;7.59;74.02;100249.92;232346;1175;117171;-64
2021/04/18 20:20:24;;;;;;;46.20;25.47;;;;;;;7.52;74.41;100245.62;232647;1175;116099;-65
2021/04/18 20:25:27;;;;;;;43.30;23.07;;;;;;;7.49;74.86;100246.84;233645;1176;116388;-66
2021/04/18 20:30:30;;;;;;;27.67;18.80;;;;;;;7.52;74.99;100248.27;233011;1175;115412;-63
2021/04/18 20:35:35;;;;;;;36.80;23.95;;;;;;;7.55;74.79;100245.22;232733;1174;217533;-65
2021/04/18 20:40:39;;;;;;;39.53;24.60;;;;;;;7.48;75.43;100241.73;233450;1176;115656;-64
2021/04/18 20:45:43;;;;;;;40.33;20.03;;;;;;;7.44;76.09;100233.36;232836;1174;116272;-65
2021/04/18 20:50:46;;;;;;;44.17;21.63;;;;;;;7.44;76.00;100241.31;232266;1174;116292;-64
2021/04/18 20:55:50;;;;;;;36.33;21.40;;;;;;;7.37;75.66;100232.52;232863;1174;115395;-66
2021/04/18 21:01:08;;;;;;;36.97;21.57;;;;;;;7.31;75.86;100230.70;232815;1174;116108;-63
2021/04/18 21:06:11;;;;;;;34.80;23.00;;;;;;;7.26;75.65;100236.60;233019;1175;115834;-68
2021/04/18 21:11:15;;;;;;;37.48;24.23;;;;;;;7.24;76.11;100235.98;233995;1175;116027;-65
2021/04/18 21:16:18;;;;;;;38.97;23.07;;;;;;;7.18;75.49;100238.61;233997;1174;136639;-67
2021/04/18 21:21:22;;;;;;;33.63;22.70;;;;;;;6.93;75.36;100230.39;232620;1175;115736;-67
2021/04/18 21:26:25;;;;;;;34.78;22.45;;;;;;;6.76;75.52;100236.02;233993;1170;115337;-65
2021/04/18 21:31:28;;;;;;;36.47;22.40;;;;;;;6.70;75.31;100239.48;233289;1175;115435;-65
2021/04/18 21:36:33;;;;;;;37.28;22.75;;;;;;;6.59;75.79;100232.09;233199;1174;116139;-65
2021/04/18 21:41:39;;;;;;;33.58;22.65;;;;;;;6.61;75.99;100218.64;234982;1174;115320;-66
2021/04/18 21:46:42;;;;;;;30.80;20.28;;;;;;;6.59;76.32;100228.63;235042;1174;115419;-64
2021/04/18 21:51:46;;;;;;;34.27;21.60;;;;;;;6.55;76.21;100227.38;235077;1174;115453;-64
2021/04/18 21:56:49;;;;;;;37.88;23.10;;;;;;;6.49;76.24;100217.56;233195;1176;115859;-65
2021/04/18 22:01:53;;;;;;;39.17;23.07;;;;;;;6.44;76.37;100228.73;233800;1176;115591;-66
2021/04/18 22:06:57;;;;;;;31.17;22.23;;;;;;;6.32;75.97;100233.78;232812;1175;115685;-64
2021/04/18 22:12:00;;;;;;;29.33;18.80;;;;;;;6.17;76.38;100233.06;233076;1171;115311;-65
2021/04/18 22:17:04;;;;;;;35.70;23.40;;;;;;;6.12;76.61;100229.36;232618;1176;116572;-64
2021/04/18 22:22:07;;;;;;;33.58;20.83;;;;;;;6.17;76.64;100224.30;233521;1175;116631;-64
2021/04/18 22:27:10;;;;;;;38.17;23.53;;;;;;;6.17;77.03;100213.71;233168;1167;115624;-65
2021/04/18 22:32:15;;;;;;;45.10;25.20;;;;;;;6.10;77.15;100234.87;232903;1175;116723;-66
2021/04/18 22:37:22;;;;;;;40.25;25.48;;;;;;;6.01;77.18;100222.78;232856;1176;115865;-67
2021/04/18 22:42:25;;;;;;;37.83;21.83;;;;;;;5.99;77.03;100230.92;232524;1174;115872;-66
2021/04/18 22:47:29;;;;;;;36.20;21.93;;;;;;;6.02;77.45;100232.36;232473;1174;216681;-66